KEDE

Northeastern Regional Airport

Edenton, North Carolina, USA
METAR KEDE 172115Z AUTO 10005KT 4SM BR OVC006 08/07 A3015 RMK AO2 P0001 T00800070
Observed Flight Rules
Feb-17 @ 21:15 UTC (17 minutes ago) Instrument Flight Rules
Wind Visibility Clouds Conditions
100° at 5 knots 4 miles
  • Overcast at 600' AGL
  • Mist
Temperatures Readings Precipitation
Current 8°C / 46°F
Dewpoint 7°C / 45°F
Humidity 93%
Altimeter 30.15" Hg
Pressure 1021 hPa
Elevation 6
Current Rain 0.01
METAR KEDE 172115Z AUTO 10005KT 4SM BR OVC006 08/07 A3015 RMK AO2 P0001 T00800070
Observed Flight Rules
Feb-17 @ 21:15 UTC
(17 minutes ago)
IFR
Wind Visibility
100° at 5 knots 4 miles
Clouds
  • Overcast at 600' AGL
Conditions
  • Mist
Temperature Dewpoint
8°C / 46°F 7°C / 45°F
Humidity Altimeter Pressure
93% 30.15" Hg 1021 hPa
Current Rain
0.01